YILA weather

Milawa Vineyard Airport
Victoria, Australia

Public forecast

Using degrees Celsius for public forecast. Weather courtesy of forecast.io.

Closest aviation weather report (METAR) to Milawa Vineyard Airport

Closest report is Wangaratta Airport, 6.6 nm (12.1 km) WNW. Retrieved 2020/02/23 09:00 UTC (1 hour ago):

YWGT 230900Z AUTO 36011KT 9999 // BKN100 29/13 Q1017

Closest aviation forecast (TAF) to Milawa Vineyard Airport

Forecast is more than 6 hours old.

Closest forecast is Wangaratta Airport, 6.6 nm (12.1 km) WNW. Retrieved 2020-02-23 02:33 UTC (8 hours ago):

TAF TAF YWGT 230119Z 2302/2314 36010KT 9999 -SHRA SCT050